Casper, Wyoming
Current Conditions -  °F | °C
As of 2:53 AM on Friday 28 Nov 2014 (Local Time) from KCPR Reporting Station
Clear Clear  
Wind Chill: 33°   Ceiling: Unl
Heat Index: 41°   Visibility: 10mi
Dew Point: 23°   Wind: 16mph
Humidity: 49%   Direction: 240°WSW
Pressure: 29.93"   Gusts: NA
Location:  42.85°N, 106.32°W
Report Text: KCPR 280953Z AUTO 24014KT 10SM CLR 05/M05 A2993 RMK AO2 SLP113 T00501050
Loading
Personal Weather Stations






























Interactive Weather Map New forecast layout! Learn more

10-Day Weather Forecast

Advertisements
Track Severe Weather on mobile